Pagrindinis puslapis
METAR-TAF:

METAR-TAF

Oro uostai :

Sankt Galenas, Šveicarija

platuma: 47-29-06N, ilguma: 009-33-43E, Aukštis: 398 m

Dabartinis oras

Ataskaita buvo paskelbta 27 minutes, ne 09:20 UTC
Vėjas 3 kt iš Vakarų/Šiaurės Vakarų, svyruoja nuo Pietų ir Šiaurės
Temperatūra 11°C
Drėgmė 82%
Slėgis 1027 hPa
Matomumas 10 km arba daugiau
nėra debesų žemiau 1500 m ir nėra kamuolinių lietaus debesų

METAR: LSZR 200920Z 29003KT 190V350 CAVOK 11/08 Q1027 NOSIG RMK F

Laikas: 11:47 (09:47 UTC)

Prognozė

Ataskaita buvo paskelbta 1 valandą ir 22 minutes, ne 08:25 UTC
Prognozė galioja nuo 20 metu 09 UTC su 20 metu 18 UTC
Vėjas 3 kt nuo kintamojo kryptimis
Matomumas 10 km arba daugiau
Mažai debesys ne aukštis 2500 ft
Tapsmas
nuo 20 metu 15 UTC su 20 metu 17 UTC
Matomumas 10 km arba daugiau
nėra debesų žemiau 1500 m ir nėra kamuolinių lietaus debesų

TAF: LSZR 200825Z 2009/2018 VRB03KT 9999 FEW025 BECMG 2015/2017 CAVOK

Orai ataskaitas ir orų prognozės (METAR, TAF).

turimą stotys yra geltonos ir raudonos taškus žemėlapyje.

Perkelti pele per norėdami pamatyti stoties vardą.

Tada spustelėkite, norėdami matyti oro stebėjimo ir prognozės.

Norėdami pakeisti žemėlapį: spustelėkite ant žalios mygtukų su juodo kryžiaus žemyn,; žalią mygtuką su brūkšneliu, jei norite nutolinti; arba žalių rodyklių gretimoms žemėlapius.


METAR-TAF: